Time;durP1;ratioP1;P1;durP2;ratioP2;P2;SDS_P1;SDS_P2;PMS_P1;PMS_P2;Temp;Humidity;BMP_temperature;BMP_pressure;BME280_temperature;BME280_humidity;BME280_pressure;Samples;Min_cycle;Max_cycle;Signal;HPM_P1;HPM_P2
2021/09/07 00:01:16;;;;;;;16.83;9.73;;;18.70;80.10;;;;;;4998361;28;20034;-81
2021/09/07 00:03:42;;;;;;;17.30;10.40;;;18.70;80.20;;;;;;5031377;28;20116;-81
2021/09/07 00:06:08;;;;;;;14.77;10.07;;;18.60;80.10;;;;;;5014714;28;20482;-82
2021/09/07 00:08:34;;;;;;;14.63;9.80;;;18.60;80.00;;;;;;5014659;28;20430;-82
2021/09/07 00:10:59;;;;;;;14.80;9.48;;;18.60;79.90;;;;;;5015797;28;20037;-82
2021/09/07 00:13:25;;;;;;;15.10;10.43;;;18.60;79.80;;;;;;5030950;28;20033;-81
2021/09/07 00:15:51;;;;;;;16.45;9.80;;;18.60;79.80;;;;;;5015563;28;20391;-80
2021/09/07 00:18:17;;;;;;;16.98;10.48;;;18.60;79.90;;;;;;5015684;28;20026;-81
2021/09/07 00:20:42;;;;;;;15.35;9.82;;;18.60;80.10;;;;;;5014248;28;20539;-81
2021/09/07 00:23:08;;;;;;;17.05;10.38;;;18.60;80.10;;;;;;5015359;28;20046;-81
2021/09/07 00:25:33;;;;;;;15.27;10.05;;;18.50;80.10;;;;;;5015409;28;20032;-81
2021/09/07 00:27:59;;;;;;;15.30;10.30;;;18.60;80.40;;;;;;5014144;28;20036;-81
2021/09/07 00:30:25;;;;;;;15.50;9.80;;;18.60;80.70;;;;;;4997737;28;20105;-81
2021/09/07 00:32:50;;;;;;;17.85;9.82;;;18.50;80.90;;;;;;5030488;28;20050;-81
2021/09/07 00:35:16;;;;;;;14.02;9.57;;;18.60;81.20;;;;;;5015354;28;20022;-81
2021/09/07 00:37:42;;;;;;;15.15;10.45;;;18.50;81.30;;;;;;5015240;28;20466;-81
2021/09/07 00:40:10;;;;;;;15.82;10.00;;;18.50;81.50;;;;;;4997602;28;20033;-81
2021/09/07 00:42:36;;;;;;;16.25;10.38;;;18.50;81.70;;;;;;5014002;28;20030;-81
2021/09/07 00:45:08;;;;;;;15.40;10.73;;;18.50;81.90;;;;;;5013757;28;20030;-81
2021/09/07 00:47:33;;;;;;;16.92;10.43;;;18.50;82.10;;;;;;5013793;28;20030;-81
2021/09/07 00:49:59;;;;;;;17.33;10.45;;;18.50;82.00;;;;;;5015273;28;20109;-81
2021/09/07 00:52:25;;;;;;;13.55;9.45;;;18.50;82.10;;;;;;5013610;28;20072;-81
2021/09/07 00:54:52;;;;;;;15.63;9.23;;;18.50;82.20;;;;;;5013880;28;20033;-81
2021/09/07 00:57:22;;;;;;;14.88;9.85;;;18.60;82.60;;;;;;5029872;28;20390;-81
2021/09/07 00:59:51;;;;;;;15.73;9.90;;;18.60;82.60;;;;;;5014746;28;20029;-81
2021/09/07 01:02:17;;;;;;;15.88;10.05;;;18.60;82.40;;;;;;5013542;28;20044;-81
2021/09/07 01:04:43;;;;;;;13.80;10.02;;;18.60;82.20;;;;;;5014779;28;20022;-81
2021/09/07 01:07:08;;;;;;;15.27;10.43;;;18.60;82.00;;;;;;5013313;28;20618;-81
2021/09/07 01:09:39;;;;;;;16.23;9.82;;;18.60;81.90;;;;;;4997075;28;20029;-81
2021/09/07 01:12:05;;;;;;;15.80;9.77;;;18.60;81.90;;;;;;5013321;28;20482;-81
2021/09/07 01:14:33;;;;;;;16.42;11.02;;;18.60;81.90;;;;;;5014417;28;20493;-81
2021/09/07 01:16:59;;;;;;;16.08;9.85;;;18.60;81.90;;;;;;5014466;28;20025;-80
2021/09/07 01:19:29;;;;;;;14.95;9.77;;;18.60;81.90;;;;;;5014585;28;20443;-81
2021/09/07 01:21:56;;;;;;;15.70;9.70;;;18.60;82.00;;;;;;5014163;28;20053;-81
2021/09/07 01:24:26;;;;;;;16.88;10.50;;;18.60;82.00;;;;;;5014322;28;20022;-80
2021/09/07 01:26:52;;;;;;;14.35;9.32;;;18.60;82.00;;;;;;5014175;28;20367;-81
2021/09/07 01:29:18;;;;;;;14.27;9.65;;;18.50;82.00;;;;;;5012740;28;20033;-74
2021/09/07 01:31:44;;;;;;;19.25;11.05;;;18.50;82.70;;;;;;5014385;28;20030;-75
2021/09/07 01:34:22;;;;;;;16.20;10.23;;;18.60;82.20;;;;;;5013114;28;20026;-74
2021/09/07 01:36:47;;;;;;;15.27;9.93;;;18.60;82.20;;;;;;5014146;28;20026;-74
2021/09/07 01:39:13;;;;;;;17.98;10.88;;;18.60;82.20;;;;;;5029507;28;20033;-74
2021/09/07 01:41:40;;;;;;;14.75;10.20;;;18.60;82.10;;;;;;5014271;28;20022;-75
2021/09/07 01:44:05;;;;;;;16.73;10.98;;;18.60;82.10;;;;;;5014213;28;20034;-75
2021/09/07 01:46:31;;;;;;;16.98;10.65;;;18.60;82.30;;;;;;4996549;28;20120;-75
2021/09/07 01:48:57;;;;;;;20.48;11.05;;;18.50;82.30;;;;;;5012703;28;20081;-74
2021/09/07 01:51:22;;;;;;;14.90;10.48;;;18.50;82.40;;;;;;5012807;28;20037;-74
2021/09/07 01:53:48;;;;;;;16.23;11.10;;;18.50;82.30;;;;;;4996544;28;20022;-75
2021/09/07 01:56:14;;;;;;;16.73;10.90;;;18.50;82.30;;;;;;5014141;28;20034;-75
2021/09/07 01:58:39;;;;;;;16.98;11.10;;;18.40;82.20;;;;;;5014151;28;20030;-75
2021/09/07 02:01:05;;;;;;;15.60;11.10;;;18.40;82.30;;;;;;5013901;28;20029;-75
2021/09/07 02:03:30;;;;;;;15.68;10.50;;;18.40;82.40;;;;;;5012845;28;20104;-75
2021/09/07 02:05:56;;;;;;;19.42;11.35;;;18.30;82.50;;;;;;4996301;28;20037;-74
2021/09/07 02:08:22;;;;;;;17.77;10.80;;;18.30;82.70;;;;;;5012896;28;20037;-75
2021/09/07 02:10:48;;;;;;;16.58;9.50;;;18.20;83.00;;;;;;5013924;28;20109;-75
2021/09/07 02:13:13;;;;;;;16.15;10.20;;;18.20;83.40;;;;;;5012719;28;20474;-75
2021/09/07 02:15:39;;;;;;;16.27;10.30;;;18.20;83.60;;;;;;5012251;28;20037;-75
2021/09/07 02:18:04;;;;;;;15.35;9.60;;;18.20;83.80;;;;;;5012394;28;20034;-75
2021/09/07 02:20:30;;;;;;;15.80;10.52;;;18.20;83.90;;;;;;5029001;28;20025;-75
2021/09/07 02:22:57;;;;;;;15.40;10.32;;;18.20;84.00;;;;;;5012359;28;20375;-75
2021/09/07 02:25:22;;;;;;;19.23;11.65;;;18.20;84.20;;;;;;5013835;28;20030;-75
2021/09/07 02:27:48;;;;;;;18.92;11.10;;;18.20;84.30;;;;;;5012899;28;20030;-75
2021/09/07 02:30:14;;;;;;;19.35;11.73;;;18.20;84.30;;;;;;5012664;28;20362;-75
2021/09/07 02:32:40;;;;;;;17.73;10.75;;;18.20;84.20;;;;;;5012594;28;20105;-75
2021/09/07 02:35:06;;;;;;;19.13;11.77;;;18.30;84.20;;;;;;5012109;28;20029;-75
2021/09/07 02:37:32;;;;;;;17.13;11.18;;;18.20;84.00;;;;;;5012360;28;20038;-75
2021/09/07 02:39:57;;;;;;;19.20;11.57;;;18.30;84.00;;;;;;5013358;28;20030;-81
2021/09/07 02:42:23;;;;;;;17.98;11.68;;;18.30;84.00;;;;;;5017192;28;20482;-81
2021/09/07 02:44:49;;;;;;;18.67;12.45;;;18.30;83.90;;;;;;5016220;28;20030;-81
2021/09/07 02:47:14;;;;;;;17.27;11.70;;;18.30;84.00;;;;;;5017032;28;20033;-81
2021/09/07 02:49:40;;;;;;;18.02;11.23;;;18.30;84.20;;;;;;5015894;28;20034;-81
2021/09/07 02:52:06;;;;;;;18.10;12.13;;;18.30;84.50;;;;;;4999520;28;20478;-81
2021/09/07 02:54:32;;;;;;;16.45;11.65;;;18.30;84.80;;;;;;4999665;28;20383;-81
2021/09/07 02:56:57;;;;;;;16.50;11.88;;;18.40;85.10;;;;;;4999592;28;20029;-81
2021/09/07 02:59:23;;;;;;;19.73;13.05;;;18.30;85.30;;;;;;5015855;28;20434;-81
2021/09/07 03:01:48;;;;;;;20.27;13.40;;;18.40;85.40;;;;;;5015963;28;20029;-80
2021/09/07 03:04:14;;;;;;;19.42;12.38;;;18.30;85.20;;;;;;5015792;28;20030;-81
2021/09/07 03:06:40;;;;;;;22.05;11.43;;;18.30;85.00;;;;;;5016761;28;20028;-81
2021/09/07 03:09:06;;;;;;;19.58;11.50;;;18.40;84.90;;;;;;5015598;28;20026;-81
2021/09/07 03:11:32;;;;;;;17.67;11.32;;;18.40;84.80;;;;;;4999299;28;20029;-81
2021/09/07 03:13:57;;;;;;;20.88;13.40;;;18.40;84.70;;;;;;5017132;28;20030;-80
2021/09/07 03:16:23;;;;;;;20.13;12.82;;;18.40;84.50;;;;;;5015555;28;20096;-80
2021/09/07 03:18:50;;;;;;;18.40;12.00;;;18.40;84.40;;;;;;5017104;28;20038;-80
2021/09/07 03:21:15;;;;;;;19.05;12.23;;;18.40;84.20;;;;;;4998350;28;20070;-81
2021/09/07 03:23:41;;;;;;;18.00;12.02;;;18.40;84.10;;;;;;5015214;28;20071;-81
2021/09/07 03:26:08;;;;;;;18.67;12.27;;;18.40;84.00;;;;;;5015082;28;20030;-81
2021/09/07 03:28:34;;;;;;;16.80;11.82;;;18.40;83.90;;;;;;5016414;28;20466;-81
2021/09/07 03:31:00;;;;;;;17.60;10.45;;;18.40;83.80;;;;;;5015176;28;20033;-81
2021/09/07 03:33:25;;;;;;;19.02;12.20;;;18.40;83.70;;;;;;4998880;28;20026;-81
2021/09/07 03:35:51;;;;;;;19.85;12.98;;;18.40;84.40;;;;;;5016253;28;20109;-81
2021/09/07 03:38:16;;;;;;;18.90;12.15;;;18.40;83.80;;;;;;4998946;28;20056;-81
2021/09/07 03:40:42;;;;;;;17.92;10.93;;;18.40;83.80;;;;;;5015131;28;20049;-81
2021/09/07 03:43:08;;;;;;;18.75;11.73;;;18.40;83.80;;;;;;5014911;28;20044;-81
2021/09/07 03:45:33;;;;;;;19.52;12.45;;;18.40;83.90;;;;;;5016082;28;20030;-81
2021/09/07 03:47:59;;;;;;;18.35;12.52;;;18.40;84.00;;;;;;5016461;28;20034;-81
2021/09/07 03:50:25;;;;;;;17.40;12.48;;;18.30;83.90;;;;;;5014535;28;20429;-81
2021/09/07 03:52:50;;;;;;;21.70;13.77;;;18.30;83.80;;;;;;5009572;28;20525;-81
2021/09/07 03:55:16;;;;;;;23.38;12.82;;;18.30;83.70;;;;;;5000082;28;20076;-81
2021/09/07 03:57:42;;;;;;;20.75;13.18;;;18.30;83.60;;;;;;4994692;28;20030;-81
2021/09/07 04:00:08;;;;;;;20.63;13.13;;;18.30;83.50;;;;;;4996085;28;20042;-81
2021/09/07 04:02:34;;;;;;;22.05;13.07;;;18.30;83.50;;;;;;5011244;28;20121;-81
2021/09/07 04:05:00;;;;;;;20.42;13.32;;;18.20;83.40;;;;;;4994718;28;20121;-81
2021/09/07 04:07:25;;;;;;;20.23;12.85;;;18.20;83.50;;;;;;4994679;28;20065;-81
2021/09/07 04:09:51;;;;;;;23.95;13.30;;;18.20;83.50;;;;;;5012901;28;20038;-80
2021/09/07 04:12:17;;;;;;;20.08;12.73;;;18.20;83.50;;;;;;5014407;28;20470;-80
2021/09/07 04:14:42;;;;;;;22.95;12.80;;;18.10;83.50;;;;;;5014080;28;20088;-80
2021/09/07 04:17:09;;;;;;;18.38;11.73;;;18.10;83.80;;;;;;5014224;28;20029;-80
2021/09/07 04:19:35;;;;;;;20.45;11.93;;;18.10;84.10;;;;;;5030776;28;20038;-81
2021/09/07 04:22:01;;;;;;;21.52;13.85;;;18.00;84.30;;;;;;5015894;28;20042;-81
2021/09/07 04:24:26;;;;;;;24.38;13.82;;;18.00;84.50;;;;;;5015412;28;20026;-81
2021/09/07 04:26:55;;;;;;;19.33;12.48;;;18.00;84.80;;;;;;5015327;28;20440;-80
2021/09/07 04:29:21;;;;;;;20.25;11.95;;;17.90;85.10;;;;;;5015394;28;20034;-80
2021/09/07 04:31:47;;;;;;;16.02;10.27;;;17.90;85.20;;;;;;4998119;28;20014;-81
2021/09/07 04:34:13;;;;;;;18.40;11.55;;;17.80;85.40;;;;;;5014235;28;20030;-81
2021/09/07 04:36:39;;;;;;;20.42;12.52;;;17.80;85.40;;;;;;5014366;28;20040;-81
2021/09/07 04:39:05;;;;;;;20.05;12.40;;;17.80;85.50;;;;;;5013963;28;20502;-81
2021/09/07 04:41:31;;;;;;;17.05;11.05;;;17.80;85.80;;;;;;4997891;28;20040;-81
2021/09/07 04:43:57;;;;;;;18.17;11.63;;;17.70;86.10;;;;;;5015385;28;20037;-81
2021/09/07 04:46:22;;;;;;;18.88;11.70;;;17.70;86.50;;;;;;5014113;28;20030;-82
2021/09/07 04:48:54;;;;;;;18.85;11.23;;;17.70;86.60;;;;;;5015297;28;20026;-82
2021/09/07 04:51:20;;;;;;;22.10;11.63;;;17.70;86.70;;;;;;5013812;28;20026;-82
2021/09/07 04:53:45;;;;;;;19.88;11.88;;;17.60;86.60;;;;;;5013609;28;20021;-82
2021/09/07 04:56:11;;;;;;;22.90;12.23;;;17.60;86.60;;;;;;5015213;28;20026;-82
2021/09/07 04:58:36;;;;;;;19.88;11.88;;;17.60;86.60;;;;;;5014861;28;20390;-82
2021/09/07 05:01:02;;;;;;;21.02;12.43;;;17.50;86.50;;;;;;5013280;28;20036;-81
2021/09/07 05:03:28;;;;;;;18.88;12.77;;;17.50;86.50;;;;;;5013539;28;20026;-80
2021/09/07 05:05:53;;;;;;;20.02;13.20;;;17.50;86.60;;;;;;5014005;28;20038;-80
2021/09/07 05:08:19;;;;;;;24.75;14.38;;;17.50;86.50;;;;;;5029867;28;20037;-80
2021/09/07 05:10:45;;;;;;;23.25;15.25;;;17.50;86.60;;;;;;5013803;28;20355;-79
2021/09/07 05:13:10;;;;;;;22.92;13.38;;;17.40;87.20;;;;;;5029881;28;20053;-79
2021/09/07 05:15:36;;;;;;;22.92;13.65;;;17.40;86.70;;;;;;5029589;28;20034;-80
2021/09/07 05:18:02;;;;;;;21.85;12.55;;;17.40;86.80;;;;;;5013338;28;20034;-79
2021/09/07 05:20:27;;;;;;;24.05;14.77;;;17.40;86.90;;;;;;5029597;28;20112;-79
2021/09/07 05:22:53;;;;;;;22.02;15.13;;;17.40;87.00;;;;;;5012750;28;20057;-79
2021/09/07 05:25:19;;;;;;;21.75;14.23;;;17.40;87.10;;;;;;5013036;28;20033;-79
2021/09/07 05:27:48;;;;;;;22.30;13.93;;;17.40;87.20;;;;;;5013417;28;20026;-80
2021/09/07 05:30:14;;;;;;;20.92;13.52;;;17.40;87.30;;;;;;5029060;28;20022;-80
2021/09/07 05:32:40;;;;;;;23.65;12.25;;;17.40;87.40;;;;;;4996564;28;20030;-80
2021/09/07 05:35:05;;;;;;;18.63;12.38;;;17.40;87.50;;;;;;5012698;28;20470;-80
2021/09/07 05:37:37;;;;;;;23.38;12.55;;;17.40;87.50;;;;;;5018366;28;20045;-80
2021/09/07 05:40:04;;;;;;;23.35;11.77;;;17.40;87.50;;;;;;5025920;28;20025;-80
2021/09/07 05:42:30;;;;;;;24.52;12.80;;;17.50;87.60;;;;;;4995933;28;20529;-80
2021/09/07 05:44:55;;;;;;;21.77;13.10;;;17.50;87.60;;;;;;4997052;28;20034;-80
2021/09/07 05:47:21;;;;;;;24.60;13.27;;;17.50;87.60;;;;;;5014308;28;20030;-80
2021/09/07 05:49:48;;;;;;;23.38;13.05;;;17.50;87.60;;;;;;5015992;28;20518;-80
2021/09/07 05:52:13;;;;;;;20.38;13.40;;;17.50;87.60;;;;;;4993688;28;20022;-81
2021/09/07 05:54:39;;;;;;;19.92;12.43;;;17.50;87.60;;;;;;5009184;28;20084;-80
2021/09/07 05:57:05;;;;;;;21.50;12.95;;;17.50;87.60;;;;;;4992909;28;20034;-80
2021/09/07 05:59:30;;;;;;;22.52;14.68;;;17.60;87.60;;;;;;4992896;28;20045;-80
2021/09/07 06:01:56;;;;;;;22.25;14.80;;;17.50;87.50;;;;;;4992872;28;20109;-80
2021/09/07 06:04:21;;;;;;;21.85;14.90;;;17.60;87.60;;;;;;4992426;28;20035;-80
2021/09/07 06:06:47;;;;;;;23.83;15.55;;;17.60;87.50;;;;;;4993554;28;20034;-80
2021/09/07 06:09:13;;;;;;;23.40;15.18;;;17.60;87.60;;;;;;4992387;28;20026;-80
2021/09/07 06:11:39;;;;;;;31.20;15.38;;;17.60;87.60;;;;;;4992757;28;20045;-80
2021/09/07 06:14:04;;;;;;;26.55;15.40;;;17.60;87.60;;;;;;4992540;28;20038;-80
2021/09/07 06:16:30;;;;;;;26.13;16.65;;;17.70;87.70;;;;;;4993606;28;20030;-80
2021/09/07 06:18:55;;;;;;;26.73;17.42;;;17.70;87.60;;;;;;4992549;28;20120;-80
2021/09/07 06:21:21;;;;;;;25.20;15.80;;;17.70;88.20;;;;;;4992401;28;20031;-80
2021/09/07 06:23:47;;;;;;;25.15;15.13;;;17.70;87.60;;;;;;4993528;28;20065;-80
2021/09/07 06:26:12;;;;;;;27.73;17.67;;;17.80;87.60;;;;;;5008676;28;20038;-81
2021/09/07 06:28:38;;;;;;;26.15;16.33;;;17.80;87.60;;;;;;4992398;28;20038;-80
2021/09/07 06:31:03;;;;;;;24.48;16.42;;;17.90;87.60;;;;;;4993879;28;20053;-80
2021/09/07 06:33:29;;;;;;;26.10;17.77;;;18.00;87.60;;;;;;4992559;28;20471;-80
2021/09/07 06:35:55;;;;;;;30.08;18.73;;;18.00;87.40;;;;;;4992685;28;20042;-80
2021/09/07 06:38:20;;;;;;;29.55;18.63;;;18.10;87.30;;;;;;4993737;28;20030;-80
2021/09/07 06:40:46;;;;;;;27.48;17.38;;;18.10;87.00;;;;;;4976222;28;20061;-80
2021/09/07 06:43:12;;;;;;;25.92;17.95;;;18.20;87.50;;;;;;4992544;28;20031;-80
2021/09/07 06:45:37;;;;;;;30.65;19.08;;;18.20;86.70;;;;;;4993489;28;20544;-80
2021/09/07 06:48:03;;;;;;;27.88;18.70;;;18.30;86.60;;;;;;4992586;28;20105;-80
2021/09/07 06:50:29;;;;;;;28.92;18.30;;;18.40;86.50;;;;;;4993577;28;20034;-80
2021/09/07 06:52:54;;;;;;;28.88;17.98;;;18.40;86.30;;;;;;4976197;28;20364;-80
2021/09/07 06:55:20;;;;;;;28.40;17.30;;;18.50;86.10;;;;;;4992478;28;20034;-80
2021/09/07 06:57:46;;;;;;;28.15;18.75;;;18.60;85.90;;;;;;4992444;28;20030;-80
2021/09/07 07:00:12;;;;;;;26.63;18.10;;;18.60;85.70;;;;;;4992351;28;20034;-80
2021/09/07 07:02:39;;;;;;;30.23;18.52;;;18.70;85.50;;;;;;4993599;28;20034;-80
2021/09/07 07:05:06;;;;;;;26.33;17.75;;;18.70;85.30;;;;;;4993475;28;20077;-79
2021/09/07 07:07:32;;;;;;;27.05;17.92;;;18.80;85.20;;;;;;4993292;28;20073;-80
2021/09/07 07:09:57;;;;;;;27.48;18.17;;;18.90;85.10;;;;;;4993505;28;20026;-80
2021/09/07 07:12:23;;;;;;;27.95;19.30;;;18.90;84.80;;;;;;5008471;28;20054;-80
2021/09/07 07:14:48;;;;;;;26.77;18.02;;;19.00;84.60;;;;;;4992230;28;20029;-80
2021/09/07 07:17:14;;;;;;;28.38;17.83;;;19.10;84.40;;;;;;4992308;28;20034;-80
2021/09/07 07:19:40;;;;;;;25.88;17.73;;;19.10;84.30;;;;;;4993780;28;20394;-80
2021/09/07 07:22:05;;;;;;;26.08;17.63;;;19.20;84.30;;;;;;5008431;28;20101;-80
2021/09/07 07:24:31;;;;;;;26.27;18.50;;;19.30;84.10;;;;;;4992745;28;20030;-76
2021/09/07 07:26:57;;;;;;;28.23;18.10;;;19.30;83.90;;;;;;4978772;28;20049;-76
2021/09/07 07:29:22;;;;;;;31.17;19.55;;;19.40;83.70;;;;;;4997336;28;20089;-76
2021/09/07 07:31:48;;;;;;;27.38;18.73;;;19.50;83.70;;;;;;4997112;28;20387;-76
2021/09/07 07:34:14;;;;;;;27.80;18.50;;;19.50;83.40;;;;;;4995662;28;20054;-76
2021/09/07 07:36:40;;;;;;;26.20;18.85;;;19.60;83.10;;;;;;4980005;28;20033;-77
2021/09/07 07:39:06;;;;;;;26.98;18.65;;;19.70;82.70;;;;;;4979427;28;20030;-76
2021/09/07 07:41:31;;;;;;;27.45;19.15;;;19.80;82.30;;;;;;4995285;28;20117;-76
2021/09/07 07:43:57;;;;;;;24.33;17.48;;;19.80;81.90;;;;;;4979253;28;20493;-76
2021/09/07 07:46:22;;;;;;;27.90;19.17;;;19.90;81.70;;;;;;4996720;28;20031;-76
2021/09/07 07:48:48;;;;;;;24.13;17.38;;;20.00;81.60;;;;;;4979088;28;20157;-76
2021/09/07 07:51:14;;;;;;;27.10;17.38;;;20.00;81.80;;;;;;4995456;28;20031;-80
2021/09/07 07:53:40;;;;;;;27.00;18.05;;;20.10;80.90;;;;;;4979020;28;20026;-80
2021/09/07 07:56:07;;;;;;;23.05;16.77;;;20.20;80.60;;;;;;5011451;28;20054;-80
2021/09/07 07:58:33;;;;;;;27.52;18.27;;;20.30;80.30;;;;;;4978823;28;20390;-80
2021/09/07 08:00:59;;;;;;;26.02;17.10;;;20.30;80.10;;;;;;4996279;28;20030;-80
2021/09/07 08:03:25;;;;;;;26.05;17.08;;;20.40;79.80;;;;;;4996487;28;20101;-80
2021/09/07 08:05:51;;;;;;;23.70;17.60;;;20.50;79.70;;;;;;4995088;28;20418;-80
2021/09/07 08:08:17;;;;;;;24.73;16.63;;;20.60;79.60;;;;;;4996239;28;20440;-76
2021/09/07 08:10:43;;;;;;;26.10;17.75;;;20.60;79.30;;;;;;4996517;28;20363;-76
2021/09/07 08:13:09;;;;;;;27.20;16.98;;;20.70;79.20;;;;;;4995241;28;20018;-76
2021/09/07 08:15:35;;;;;;;25.17;17.42;;;20.80;79.00;;;;;;4996253;28;20042;-77
2021/09/07 08:18:01;;;;;;;24.40;17.30;;;20.80;78.70;;;;;;4996340;28;20022;-76
2021/09/07 08:20:30;;;;;;;24.35;17.67;;;20.90;78.40;;;;;;4995683;28;20031;-77
2021/09/07 08:22:57;;;;;;;29.02;17.63;;;21.00;78.10;;;;;;4994886;28;20074;-76
2021/09/07 08:25:23;;;;;;;23.83;16.85;;;21.10;77.70;;;;;;5010988;28;20037;-77
2021/09/07 08:27:49;;;;;;;22.00;16.27;;;21.20;77.20;;;;;;4994784;28;20027;-76
2021/09/07 08:30:15;;;;;;;23.83;16.13;;;21.20;76.80;;;;;;4996066;28;20033;-81
2021/09/07 08:32:43;;;;;;;24.02;16.42;;;21.30;76.50;;;;;;4994595;28;20183;-80
2021/09/07 08:35:10;;;;;;;27.05;16.92;;;21.40;76.10;;;;;;4995714;28;20019;-80
2021/09/07 08:37:36;;;;;;;20.00;14.95;;;21.50;75.90;;;;;;4996034;28;20117;-80
2021/09/07 08:40:07;;;;;;;22.15;16.13;;;21.60;75.70;;;;;;4978623;28;20040;-80
2021/09/07 08:42:33;;;;;;;24.75;15.82;;;21.70;75.30;;;;;;5010592;28;20026;-80
2021/09/07 08:45:02;;;;;;;22.33;16.15;;;21.80;75.10;;;;;;4995653;28;20448;-81
2021/09/07 08:47:29;;;;;;;21.70;15.50;;;21.80;74.70;;;;;;5010325;28;20037;-80
2021/09/07 08:49:55;;;;;;;22.85;14.70;;;22.00;74.30;;;;;;4995464;28;20489;-81
2021/09/07 08:52:22;;;;;;;21.73;14.73;;;22.00;73.90;;;;;;4995398;28;20107;-81
2021/09/07 08:54:49;;;;;;;22.08;15.45;;;22.10;73.40;;;;;;4994296;28;20065;-80
2021/09/07 08:57:15;;;;;;;20.70;14.95;;;22.20;72.90;;;;;;4995436;28;20157;-80
2021/09/07 08:59:41;;;;;;;19.02;13.95;;;22.30;72.50;;;;;;4994994;28;20031;-81
2021/09/07 09:02:19;;;;;;;20.20;14.30;;;22.40;72.10;;;;;;4977804;28;20034;-80
2021/09/07 09:04:49;;;;;;;22.17;14.15;;;22.40;71.60;;;;;;4993851;28;20494;-80
2021/09/07 09:07:27;;;;;;;20.80;14.07;;;22.50;71.40;;;;;;4993718;28;20065;-80
2021/09/07 09:09:53;;;;;;;20.73;14.32;;;22.60;71.00;;;;;;4994977;28;20022;-80
2021/09/07 09:12:28;;;;;;;21.23;13.68;;;22.60;70.70;;;;;;4977516;28;20391;-82
2021/09/07 09:14:54;;;;;;;17.80;12.13;;;22.70;70.60;;;;;;5009928;28;20030;-80
2021/09/07 09:17:22;;;;;;;19.00;13.55;;;22.80;70.20;;;;;;4993624;28;20018;-81
2021/09/07 09:19:53;;;;;;;20.90;12.85;;;22.90;69.60;;;;;;4994911;28;20039;-80
2021/09/07 09:22:21;;;;;;;19.08;13.10;;;23.00;69.30;;;;;;4994869;28;20514;-81
2021/09/07 09:24:46;;;;;;;18.10;13.02;;;23.00;68.90;;;;;;4995017;28;20034;-80
2021/09/07 09:27:12;;;;;;;19.55;13.02;;;23.10;68.50;;;;;;4994676;28;20485;-80
2021/09/07 09:29:42;;;;;;;18.95;13.48;;;23.20;68.20;;;;;;4993778;28;20034;-81
2021/09/07 09:32:13;;;;;;;18.10;12.25;;;23.30;67.90;;;;;;5009936;28;20025;-80
2021/09/07 09:34:41;;;;;;;16.95;12.25;;;23.30;67.70;;;;;;4994958;28;20030;-81
2021/09/07 09:37:12;;;;;;;18.48;13.05;;;23.30;67.40;;;;;;4993772;28;20533;-82
2021/09/07 09:39:43;;;;;;;18.88;13.25;;;23.40;67.00;;;;;;4994692;28;20030;-84
2021/09/07 09:42:29;;;;;;;17.05;11.77;;;23.40;66.50;;;;;;4994639;28;20030;-82
2021/09/07 09:45:06;;;;;;;17.58;12.57;;;23.40;66.00;;;;;;4994698;28;20036;-81
2021/09/07 09:47:42;;;;;;;15.50;11.23;;;23.50;65.50;;;;;;4977201;28;20035;-81
2021/09/07 09:50:13;;;;;;;17.63;11.70;;;23.50;65.30;;;;;;4992686;28;20026;-81
2021/09/07 09:52:43;;;;;;;16.55;11.65;;;23.60;64.90;;;;;;4994241;28;20550;-80
2021/09/07 09:55:11;;;;;;;18.35;12.40;;;23.60;64.50;;;;;;4994428;28;20101;-80
2021/09/07 09:57:39;;;;;;;20.50;13.07;;;23.70;64.20;;;;;;4994479;28;20081;-81
2021/09/07 10:00:16;;;;;;;20.30;13.32;;;23.70;64.00;;;;;;4994287;28;20030;-80
2021/09/07 10:02:43;;;;;;;16.83;12.00;;;23.80;63.80;;;;;;4993984;28;20066;-81
2021/09/07 10:05:13;;;;;;;19.35;12.77;;;23.80;63.70;;;;;;4993022;28;20036;-82
2021/09/07 10:07:39;;;;;;;17.63;12.40;;;23.90;63.70;;;;;;4994366;28;20038;-80
2021/09/07 10:10:06;;;;;;;17.90;12.32;;;24.00;63.70;;;;;;4993237;28;20501;-81
2021/09/07 10:12:39;;;;;;;16.67;12.52;;;24.20;63.40;;;;;;4994556;28;20026;-85
2021/09/07 10:15:37;;;;;;;19.83;12.43;;;24.40;63.20;;;;;;4994014;28;20522;-82
2021/09/07 10:26:51;;;;;;;16.13;11.02;;;25.20;62.00;;;;;;4994251;28;20030;-81
2021/09/07 10:29:31;;;;;;;15.40;10.55;;;25.40;60.40;;;;;;4993726;28;20125;-82
2021/09/07 10:31:57;;;;;;;15.80;10.32;;;25.60;60.00;;;;;;4994185;28;20026;-81
2021/09/07 10:34:29;;;;;;;16.02;11.68;;;25.80;59.90;;;;;;4992749;28;20493;-84
2021/09/07 10:37:00;;;;;;;15.70;11.82;;;26.10;59.30;;;;;;4977117;28;20088;-82
2021/09/07 10:39:44;;;;;;;15.45;10.60;;;26.20;58.40;;;;;;4993755;28;20591;-83
2021/09/07 10:42:12;;;;;;;19.15;11.75;;;26.40;57.90;;;;;;4993791;28;20549;-84
2021/09/07 10:44:42;;;;;;;15.25;11.88;;;26.60;58.00;;;;;;4993819;28;20502;-83
2021/09/07 10:47:13;;;;;;;15.38;11.18;;;26.90;57.70;;;;;;4992761;28;20062;-85
2021/09/07 10:49:41;;;;;;;16.67;10.63;;;27.00;57.40;;;;;;5009104;28;20117;-83
2021/09/07 10:54:33;;;;;;;17.40;13.07;;;27.40;56.50;;;;;;4994297;28;20030;-82
2021/09/07 10:57:01;;;;;;;16.48;12.75;;;27.50;56.00;;;;;;4992504;28;20034;-83
2021/09/07 10:59:53;;;;;;;13.90;11.00;;;27.70;55.80;;;;;;5008927;28;20394;-80
2021/09/07 11:02:34;;;;;;;16.08;12.95;;;27.80;54.80;;;;;;5011836;28;20121;-82
2021/09/07 11:05:04;;;;;;;15.75;11.93;;;28.00;54.60;;;;;;4997441;28;20097;-85
2021/09/07 11:07:47;;;;;;;19.85;13.57;;;28.20;54.70;;;;;;4996270;28;20030;-83
2021/09/07 11:10:19;;;;;;;17.80;10.77;;;28.40;54.00;;;;;;4997621;28;20589;-82
2021/09/07 11:12:56;;;;;;;13.02;10.18;;;28.50;53.70;;;;;;5012536;28;20034;-82
2021/09/07 11:15:27;;;;;;;12.77;9.68;;;28.60;53.10;;;;;;4997784;28;20025;-82
2021/09/07 11:18:03;;;;;;;14.32;10.95;;;28.80;53.60;;;;;;4997251;28;20033;-83
2021/09/07 11:20:38;;;;;;;16.55;10.93;;;28.90;52.30;;;;;;4997212;28;20018;-82
2021/09/07 11:23:08;;;;;;;12.57;9.05;;;29.10;52.10;;;;;;4995813;28;20050;-85
2021/09/07 11:25:34;;;;;;;14.07;10.05;;;29.30;51.40;;;;;;4997174;28;20201;-83
2021/09/07 11:28:02;;;;;;;13.55;9.45;;;29.40;50.90;;;;;;5013328;28;20552;-84
2021/09/07 11:30:47;;;;;;;15.25;9.57;;;29.70;50.30;;;;;;4996314;28;20387;-82
2021/09/07 11:33:20;;;;;;;13.52;10.55;;;29.80;49.70;;;;;;4997227;28;20081;-83
2021/09/07 11:35:47;;;;;;;13.43;9.88;;;29.80;49.70;;;;;;4996997;28;20031;-83
2021/09/07 11:38:18;;;;;;;14.13;10.48;;;29.90;49.60;;;;;;4997012;28;20101;-85
2021/09/07 11:40:52;;;;;;;14.32;8.75;;;30.00;49.30;;;;;;4997220;28;20037;-81
2021/09/07 11:43:34;;;;;;;14.68;8.82;;;30.10;48.90;;;;;;4995811;28;20033;-82
2021/09/07 11:46:13;;;;;;;14.93;10.35;;;30.20;48.20;;;;;;4995349;28;20085;-82
2021/09/07 11:48:42;;;;;;;11.43;9.02;;;30.40;48.10;;;;;;4995486;28;20077;-81
2021/09/07 11:51:09;;;;;;;11.82;9.23;;;30.60;47.90;;;;;;4995053;28;20026;-82
2021/09/07 11:53:36;;;;;;;11.73;9.02;;;30.80;47.80;;;;;;4979001;28;20034;-81
2021/09/07 11:56:02;;;;;;;15.35;8.68;;;30.90;47.50;;;;;;4995176;28;20045;-80
2021/09/07 11:58:28;;;;;;;15.57;9.82;;;31.00;47.30;;;;;;4996736;28;20101;-85
2021/09/07 12:01:10;;;;;;;13.70;10.07;;;31.20;47.00;;;;;;4994992;28;20125;-80
2021/09/07 12:03:40;;;;;;;12.00;8.38;;;31.40;46.30;;;;;;5011071;28;20023;-82
2021/09/07 12:06:08;;;;;;;13.13;10.25;;;31.60;46.30;;;;;;4994865;28;20498;-82
2021/09/07 12:08:52;;;;;;;13.50;9.93;;;31.70;46.00;;;;;;4995081;28;20029;-81
2021/09/07 12:11:30;;;;;;;12.63;8.85;;;31.80;45.40;;;;;;4994705;28;20026;-83
2021/09/07 12:14:04;;;;;;;11.90;8.73;;;32.00;45.40;;;;;;4996341;28;20451;-83
2021/09/07 12:16:31;;;;;;;12.35;9.43;;;32.10;45.20;;;;;;4995931;28;20498;-83
2021/09/07 12:18:56;;;;;;;11.95;9.45;;;32.30;45.20;;;;;;4978850;28;20023;-82
2021/09/07 12:21:27;;;;;;;11.60;8.15;;;32.40;45.00;;;;;;4994634;28;20041;-84
2021/09/07 12:23:55;;;;;;;12.63;7.63;;;32.60;44.90;;;;;;4994576;28;20034;-80
2021/09/07 12:26:40;;;;;;;12.65;8.27;;;32.80;44.70;;;;;;4995701;28;20023;-80
2021/09/07 12:29:17;;;;;;;12.73;9.05;;;33.00;44.10;;;;;;5010641;28;20022;-84
2021/09/07 12:31:45;;;;;;;11.80;9.10;;;33.10;44.10;;;;;;4994295;28;20030;-81
2021/09/07 12:34:18;;;;;;;12.05;8.43;;;33.30;43.90;;;;;;4994600;28;20023;-81
2021/09/07 12:36:54;;;;;;;11.07;8.68;;;33.50;43.70;;;;;;4995558;28;20053;-79
2021/09/07 12:39:20;;;;;;;12.68;9.25;;;33.70;43.50;;;;;;5010870;28;20031;-81
2021/09/07 12:41:46;;;;;;;11.05;9.00;;;33.90;43.20;;;;;;4994301;28;20041;-79